Time;durP1;ratioP1;P1;durP2;ratioP2;P2;SDS_P1;SDS_P2;PMS_P1;PMS_P2;Temp;Humidity;BMP_temperature;BMP_pressure;BME280_temperature;BME280_humidity;BME280_pressure;Samples;Min_cycle;Max_cycle;Signal;HPM_P1;HPM_P2
2022/11/19 00:01:17;;;;;;;0.90;0.60;;;;;;;11.85;100.00;93453.00;5076612;22;20300;-61
2022/11/19 00:03:43;;;;;;;0.60;0.60;;;;;;;11.86;100.00;93480.06;5070334;28;20272;-61
2022/11/19 00:06:11;;;;;;;0.93;0.40;;;;;;;11.78;100.00;93470.69;5031667;28;20292;-64
2022/11/19 00:08:38;;;;;;;0.60;0.57;;;;;;;11.71;100.00;93445.13;5050969;28;20173;-60
2022/11/19 00:11:09;;;;;;;0.30;0.30;;;;;;;11.75;100.00;93466.72;5050727;28;20687;-60
2022/11/19 00:13:35;;;;;;;0.67;0.20;;;;;;;11.77;100.00;93454.63;5051058;28;20261;-61
2022/11/19 00:16:02;;;;;;;0.30;0.30;;;;;;;11.71;100.00;93460.38;5050811;28;20689;-63
2022/11/19 00:18:28;;;;;;;0.30;0.30;;;;;;;11.77;100.00;93471.66;5050820;28;20255;-60
2022/11/19 00:20:55;;;;;;;0.33;0.33;;;;;;;11.87;100.00;93479.88;5032995;28;20213;-61
2022/11/19 00:23:21;;;;;;;0.20;0.20;;;;;;;11.82;100.00;93485.47;5050868;28;20610;-62
2022/11/19 00:25:47;;;;;;;0.50;0.30;;;;;;;11.82;100.00;93494.06;5050620;28;20706;-61
2022/11/19 00:28:12;;;;;;;0.40;0.40;;;;;;;11.85;100.00;93503.91;5050791;28;20199;-61
2022/11/19 00:30:37;;;;;;;0.53;0.23;;;;;;;11.83;100.00;93496.44;5051219;28;20323;-64
2022/11/19 00:33:03;;;;;;;0.73;0.40;;;;;;;11.78;100.00;93478.31;5050833;28;20192;-61
2022/11/19 00:35:28;;;;;;;0.40;0.30;;;;;;;11.76;100.00;93482.78;5050298;28;20300;-61
2022/11/19 00:37:53;;;;;;;0.40;0.40;;;;;;;11.79;100.00;93500.28;5032994;28;20208;-60
2022/11/19 00:40:19;;;;;;;0.70;0.20;;;;;;;11.72;100.00;93484.88;5050615;28;20232;-58
2022/11/19 00:43:45;;;;;;;2.10;0.40;;;;;;;11.70;100.00;93489.34;5050493;28;20185;-58
2022/11/19 00:45:36;;;;;;;3.60;0.40;;;;;;;11.72;100.00;93471.34;5050477;28;20229;-61
2022/11/19 00:48:01;;;;;;;0.20;0.20;;;;;;;11.77;100.00;93481.84;5050619;28;20237;-61
2022/11/19 00:50:27;;;;;;;0.40;0.30;;;;;;;11.73;100.00;93460.22;5050438;28;20233;-60
2022/11/19 00:52:52;;;;;;;0.27;0.27;;;;;;;11.79;100.00;93473.09;5050325;28;20193;-59
2022/11/19 00:55:18;;;;;;;0.43;0.27;;;;;;;11.79;100.00;93477.38;5050481;28;20750;-63
2022/11/19 00:57:43;;;;;;;0.30;0.30;;;;;;;11.83;100.00;93493.91;5050234;28;20189;-61
2022/11/19 01:00:10;;;;;;;0.43;0.43;;;;;;;11.89;100.00;93507.72;5050361;28;20681;-63
2022/11/19 01:02:35;;;;;;;0.73;0.30;;;;;;;11.97;100.00;93522.97;5050446;28;20182;-61
2022/11/19 01:05:00;;;;;;;0.10;0.10;;;;;;;11.93;100.00;93496.25;5050184;28;20215;-61
2022/11/19 01:07:26;;;;;;;0.30;0.30;;;;;;;11.99;100.00;93531.22;5032518;28;20213;-60
2022/11/19 01:09:51;;;;;;;0.97;0.30;;;;;;;12.01;100.00;93514.81;5049924;28;20220;-63
2022/11/19 01:12:16;;;;;;;0.20;0.20;;;;;;;12.03;100.00;93502.72;5050140;28;20212;-59
2022/11/19 01:14:42;;;;;;;0.23;0.20;;;;;;;11.99;100.00;93510.84;5050065;28;20300;-59
2022/11/19 01:17:08;;;;;;;0.20;0.20;;;;;;;12.00;100.00;93492.09;5051972;28;20244;-61
2022/11/19 01:19:33;;;;;;;0.20;0.20;;;;;;;11.90;100.00;93492.25;5035572;28;20221;-62
2022/11/19 01:21:58;;;;;;;0.40;0.20;;;;;;;11.92;100.00;93500.53;5053451;28;20185;-62
2022/11/19 01:24:24;;;;;;;0.17;0.17;;;;;;;11.87;100.00;93487.53;5053497;28;20240;-63
2022/11/19 01:26:49;;;;;;;0.47;0.27;;;;;;;11.97;100.00;93510.22;5053443;28;20765;-61
2022/11/19 01:29:14;;;;;;;0.30;0.30;;;;;;;11.95;100.00;93520.59;5053321;28;20220;-59
2022/11/19 01:31:40;;;;;;;0.40;0.40;;;;;;;11.92;100.00;93499.75;5053560;28;20182;-59
2022/11/19 01:34:05;;;;;;;0.30;0.30;;;;;;;11.99;100.00;93529.47;5053087;28;20203;-58
2022/11/19 01:36:30;;;;;;;0.20;0.20;;;;;;;12.02;100.00;93548.75;5053267;28;20296;-61
2022/11/19 01:38:57;;;;;;;0.93;0.30;;;;;;;12.08;100.00;93520.06;5053065;28;20562;-59
2022/11/19 01:41:30;;;;;;;0.20;0.20;;;;;;;12.04;100.00;93542.50;5053238;28;20659;-62
2022/11/19 01:44:01;;;;;;;1.60;0.30;;;;;;;12.15;100.00;93536.25;5053063;28;20592;-61
2022/11/19 01:46:29;;;;;;;0.63;0.40;;;;;;;12.13;100.00;93545.81;5053173;28;20657;-61
2022/11/19 01:49:01;;;;;;;0.40;0.30;;;;;;;12.10;100.00;93553.81;5052764;28;20211;-59
2022/11/19 01:51:31;;;;;;;0.77;0.50;;;;;;;12.18;100.00;93538.47;5052897;28;20186;-58
2022/11/19 01:54:02;;;;;;;0.60;0.20;;;;;;;12.37;100.00;93540.59;5052874;28;20193;-62
2022/11/19 01:56:29;;;;;;;0.60;0.53;;;;;;;12.25;100.00;93512.16;5052648;28;20216;-65
2022/11/19 01:59:00;;;;;;;0.83;0.50;;;;;;;12.37;100.00;93515.09;5052608;28;20190;-61
2022/11/19 02:01:27;;;;;;;1.07;0.83;;;;;;;12.11;100.00;93504.44;5053036;28;20193;-59
2022/11/19 02:03:53;;;;;;;0.53;0.50;;;;;;;12.00;100.00;93525.97;5052629;28;20288;-59
2022/11/19 02:06:18;;;;;;;1.40;0.70;;;;;;;12.03;100.00;93525.66;5052734;28;20232;-59
2022/11/19 02:08:48;;;;;;;1.03;0.50;;;;;;;11.86;100.00;93508.06;5052594;28;20181;-58
2022/11/19 02:11:48;;;;;;;1.20;0.57;;;;;;;12.04;100.00;93521.34;5052733;28;20209;-62
2022/11/19 02:14:16;;;;;;;0.50;0.50;;;;;;;11.89;100.00;93518.69;5034544;28;20220;-63
2022/11/19 02:16:45;;;;;;;1.87;1.40;;;;;;;11.60;100.00;93501.44;5052402;28;20236;-60
2022/11/19 02:19:23;;;;;;;0.97;0.70;;;;;;;11.78;100.00;93501.22;5052489;28;20223;-61
2022/11/19 02:22:13;;;;;;;1.87;0.70;;;;;;;11.91;100.00;93526.16;5052483;28;20185;-61
2022/11/19 02:25:06;;;;;;;1.83;0.60;;;;;;;11.81;100.00;93521.28;5052412;28;20218;-59
2022/11/19 02:27:49;;;;;;;1.37;0.70;;;;;;;11.89;100.00;93533.97;5051809;28;20191;-63
2022/11/19 02:30:16;;;;;;;0.50;0.50;;;;;;;11.75;100.00;93544.84;5052461;28;20302;-61
2022/11/19 02:32:57;;;;;;;0.87;0.80;;;;;;;11.71;100.00;93554.56;5052352;28;20197;-58
2022/11/19 02:35:43;;;;;;;1.13;0.70;;;;;;;11.56;100.00;93545.19;5052429;28;20221;-62
2022/11/19 02:38:35;;;;;;;0.57;0.57;;;;;;;11.46;100.00;93545.38;5052322;28;20193;-64
2022/11/19 02:41:32;;;;;;;0.80;0.70;;;;;;;11.64;100.00;93553.59;5014059;28;20232;-63
2022/11/19 02:44:57;;;;;;;1.37;1.10;;;;;;;11.56;100.00;93553.63;5059337;22;20702;-62
2022/11/19 02:46:48;;;;;;;2.10;0.90;;;;;;;11.34;100.00;93553.50;5052024;28;20200;-63
2022/11/19 02:49:16;;;;;;;2.70;1.07;;;;;;;11.36;100.00;93564.31;5052052;28;20241;-60
2022/11/19 02:51:42;;;;;;;1.10;0.90;;;;;;;11.27;100.00;93565.28;5052021;28;20724;-62
2022/11/19 02:54:08;;;;;;;1.23;0.60;;;;;;;11.44;100.00;93580.38;5052298;28;20220;-58
2022/11/19 02:56:51;;;;;;;1.03;0.53;;;;;;;11.46;100.00;93575.91;5051745;28;20762;-61
2022/11/19 03:05:01;;;;;;;1.23;0.90;;;;;;;11.44;100.00;93582.91;5051739;28;20301;-60
2022/11/19 03:07:26;;;;;;;1.20;1.07;;;;;;;11.35;100.00;93588.94;5051877;28;20219;-61
2022/11/19 03:09:57;;;;;;;1.10;1.00;;;;;;;11.43;100.00;93599.13;5051662;28;20213;-59
2022/11/19 03:12:44;;;;;;;2.37;1.27;;;;;;;11.39;100.00;93599.63;5051904;28;20548;-62
2022/11/19 03:18:38;;;;;;;4.10;1.30;;;;;;;11.53;100.00;93609.91;5051924;28;20266;-62
2022/11/19 03:21:08;;;;;;;3.23;1.10;;;;;;;11.52;100.00;93615.19;5051646;28;20628;-61
2022/11/19 03:23:43;;;;;;;2.30;1.00;;;;;;;11.53;100.00;93616.78;5052003;28;20296;-63
2022/11/19 03:26:54;;;;;;;1.73;0.90;;;;;;;11.36;100.00;93616.00;5051734;28;20181;-61
2022/11/19 03:29:23;;;;;;;1.23;1.13;;;;;;;11.37;100.00;93614.25;5014158;28;20287;-61
2022/11/19 03:31:56;;;;;;;1.83;1.23;;;;;;;11.39;100.00;93604.72;5051387;28;20676;-62
2022/11/19 03:34:24;;;;;;;1.30;1.20;;;;;;;11.52;100.00;93621.06;5033422;28;20617;-62
2022/11/19 03:36:54;;;;;;;1.73;1.37;;;;;;;11.45;100.00;93626.97;5051231;28;20251;-62
2022/11/19 03:39:21;;;;;;;2.63;1.60;;;;;;;11.44;100.00;93607.56;5051336;28;20254;-58
2022/11/19 03:41:49;;;;;;;1.50;1.27;;;;;;;11.51;100.00;93619.47;5051353;28;20182;-63
2022/11/19 03:44:24;;;;;;;2.20;1.20;;;;;;;11.50;100.00;93617.09;5051248;28;20718;-63
2022/11/19 03:46:55;;;;;;;2.00;1.57;;;;;;;11.49;100.00;93612.97;5051229;28;20200;-58
2022/11/19 03:49:27;;;;;;;3.13;1.60;;;;;;;11.58;100.00;93622.97;5051192;28;20209;-62
2022/11/19 03:52:01;;;;;;;1.60;1.50;;;;;;;11.46;100.00;93615.81;5050980;28;20184;-60
2022/11/19 03:54:27;;;;;;;1.87;1.67;;;;;;;11.55;100.00;93647.97;5051097;28;20212;-58
2022/11/19 03:56:53;;;;;;;3.67;2.00;;;;;;;11.63;100.00;93650.50;5051147;28;20197;-63
2022/11/19 03:59:19;;;;;;;2.03;1.57;;;;;;;11.62;100.00;93652.25;5051098;28;20725;-61
2022/11/19 04:01:49;;;;;;;1.97;1.40;;;;;;;11.62;100.00;93654.78;5051125;28;20260;-61
2022/11/19 04:06:59;;;;;;;1.40;1.30;;;;;;;11.49;100.00;93636.66;5051032;28;20184;-62
2022/11/19 04:09:24;;;;;;;4.90;2.20;;;;;;;11.49;100.00;93640.97;5050790;28;20197;-61
2022/11/19 04:11:50;;;;;;;2.27;1.60;;;;;;;11.49;100.00;93640.97;5050934;28;20243;-61
2022/11/19 04:14:15;;;;;;;2.93;1.73;;;;;;;11.46;100.00;93647.16;5051020;28;20209;-58
2022/11/19 04:16:41;;;;;;;2.47;1.60;;;;;;;11.57;100.00;93658.78;5033458;28;20213;-58
2022/11/19 04:19:07;;;;;;;2.13;1.73;;;;;;;11.67;100.00;93674.72;5050504;28;20309;-60
2022/11/19 04:21:33;;;;;;;2.00;1.70;;;;;;;11.68;100.00;93699.19;5032732;28;20193;-63
2022/11/19 04:23:58;;;;;;;2.17;1.57;;;;;;;11.57;100.00;93687.53;5051111;28;20216;-62
2022/11/19 04:26:29;;;;;;;1.43;1.33;;;;;;;11.63;100.00;93693.78;5050786;28;20259;-61
2022/11/19 04:28:55;;;;;;;1.83;1.57;;;;;;;11.48;100.00;93675.78;5051019;28;20194;-61
2022/11/19 04:31:20;;;;;;;1.73;1.50;;;;;;;11.41;100.00;93651.91;5050835;28;20585;-60
2022/11/19 04:33:46;;;;;;;2.00;1.80;;;;;;;11.49;100.00;93667.19;5050911;28;20186;-63
2022/11/19 04:36:11;;;;;;;2.57;1.80;;;;;;;11.59;100.00;93685.66;5050531;28;20288;-62
2022/11/19 04:38:36;;;;;;;1.97;1.47;;;;;;;11.49;100.00;93679.13;5050669;28;20243;-60
2022/11/19 04:41:03;;;;;;;3.13;1.90;;;;;;;11.47;100.00;93676.72;5050627;28;20208;-62
2022/11/19 04:43:28;;;;;;;2.57;1.57;;;;;;;11.58;100.00;93693.44;5050613;28;20189;-62
2022/11/19 04:45:53;;;;;;;2.40;1.87;;;;;;;11.58;100.00;93689.16;5050384;28;20201;-61
2022/11/19 04:48:19;;;;;;;4.67;2.00;;;;;;;11.60;100.00;93692.31;5050756;28;20198;-62
2022/11/19 04:50:44;;;;;;;2.93;2.03;;;;;;;11.61;100.00;93696.47;5032537;28;20304;-62
2022/11/19 04:53:09;;;;;;;2.40;2.00;;;;;;;11.61;100.00;93710.94;5054128;28;20190;-61
2022/11/19 04:55:35;;;;;;;2.30;1.77;;;;;;;11.57;100.00;93722.41;5053739;28;20766;-59
2022/11/19 04:58:00;;;;;;;2.33;2.13;;;;;;;11.47;100.00;93714.91;5053996;28;20219;-61
2022/11/19 05:00:25;;;;;;;2.57;1.97;;;;;;;11.48;100.00;93703.78;5053651;28;20227;-58
2022/11/19 05:02:51;;;;;;;5.63;2.50;;;;;;;11.43;100.00;93710.31;5053780;28;20209;-62
2022/11/19 05:05:16;;;;;;;2.77;2.23;;;;;;;11.20;100.00;93711.84;5035950;28;20216;-60
2022/11/19 05:07:42;;;;;;;4.10;2.60;;;;;;;11.31;100.00;93719.97;5053931;28;20276;-63
2022/11/19 05:10:08;;;;;;;3.20;2.10;;;;;;;11.32;100.00;93736.84;5053709;28;20284;-57
2022/11/19 05:12:33;;;;;;;4.53;2.93;;;;;;;11.51;100.00;93767.06;5060769;22;20310;-62
2022/11/19 05:14:58;;;;;;;3.87;2.87;;;;;;;11.63;100.00;93793.84;5053661;28;20225;-63
2022/11/19 05:17:24;;;;;;;5.33;2.90;;;;;;;11.33;100.00;93793.63;5053558;28;20213;-61
2022/11/19 05:19:49;;;;;;;4.10;3.30;;;;;;;11.31;100.00;93816.66;5053573;28;20213;-58
2022/11/19 05:22:15;;;;;;;6.90;3.80;;;;;;;10.91;100.00;93784.25;5053963;28;20185;-57
2022/11/19 05:24:40;;;;;;;6.20;3.50;;;;;;;10.73;100.00;93780.19;5053541;28;20263;-62
2022/11/19 05:27:06;;;;;;;5.23;3.47;;;;;;;10.67;100.00;93786.69;5053499;28;20213;-61
2022/11/19 05:29:31;;;;;;;7.40;3.80;;;;;;;10.80;100.00;93788.81;5053202;28;20288;-61
2022/11/19 05:31:56;;;;;;;4.50;3.60;;;;;;;10.90;100.00;93809.84;5053566;28;20598;-63
2022/11/19 05:34:22;;;;;;;5.27;3.73;;;;;;;10.70;100.00;93800.84;5053584;28;20292;-61
2022/11/19 05:36:47;;;;;;;7.47;4.37;;;;;;;10.63;100.00;93789.69;5053326;28;20759;-62
2022/11/19 05:39:13;;;;;;;7.27;3.60;;;;;;;10.56;100.00;93798.88;5053299;28;20206;-58
2022/11/19 05:41:38;;;;;;;5.57;3.90;;;;;;;10.66;100.00;93804.66;5053550;28;20212;-61
2022/11/19 05:44:04;;;;;;;9.07;4.10;;;;;;;10.64;100.00;93804.81;5053245;28;20205;-59
2022/11/19 05:46:29;;;;;;;7.00;4.20;;;;;;;10.58;100.00;93802.06;5053346;28;20593;-61
2022/11/19 05:48:55;;;;;;;7.23;3.53;;;;;;;10.65;100.00;93815.75;5052906;28;20635;-61
2022/11/19 05:51:20;;;;;;;4.43;3.27;;;;;;;10.91;100.00;93847.03;5053393;28;20647;-62
2022/11/19 05:53:45;;;;;;;4.90;3.77;;;;;;;10.55;100.00;93820.94;5053047;28;20212;-62
2022/11/19 05:56:11;;;;;;;4.27;3.43;;;;;;;10.46;100.00;93834.56;5053048;28;20217;-61
2022/11/19 05:58:36;;;;;;;6.73;3.90;;;;;;;10.26;100.00;93829.81;5052874;28;20181;-61
2022/11/19 06:01:28;;;;;;;5.23;3.33;;;;;;;10.32;100.00;93824.13;5052695;28;20197;-61
2022/11/19 06:03:53;;;;;;;6.57;3.63;;;;;;;10.63;100.00;93836.22;5052879;28;20648;-58
2022/11/19 06:06:19;;;;;;;4.40;3.13;;;;;;;10.69;100.00;93843.25;5034951;28;20285;-61
2022/11/19 06:08:46;;;;;;;4.53;3.07;;;;;;;10.77;100.00;93840.75;5052745;28;20265;-61
2022/11/19 06:11:46;;;;;;;4.20;3.33;;;;;;;10.98;100.00;93850.56;5052933;28;20213;-61
2022/11/19 06:13:56;;;;;;;5.03;3.43;;;;;;;10.90;100.00;93864.03;5052508;28;20189;-63
2022/11/19 06:16:22;;;;;;;8.03;3.77;;;;;;;10.83;100.00;93849.53;5052617;28;20217;-62
2022/11/19 06:18:47;;;;;;;8.90;5.07;;;;;;;10.64;100.00;93865.00;5052554;28;20218;-62
2022/11/19 06:21:13;;;;;;;6.97;4.77;;;;;;;10.39;100.00;93870.84;5052380;28;20201;-61
2022/11/19 06:23:38;;;;;;;9.47;5.53;;;;;;;10.48;100.00;93887.75;5052512;28;20192;-61
2022/11/19 06:26:06;;;;;;;5.83;3.93;;;;;;;10.68;100.00;93902.69;5052538;28;20181;-59
2022/11/19 06:28:32;;;;;;;6.07;4.17;;;;;;;11.01;100.00;93921.44;5034551;28;20276;-59
2022/11/19 06:30:57;;;;;;;6.37;3.83;;;;;;;11.21;100.00;93927.16;5052317;28;20209;-62
2022/11/19 06:33:22;;;;;;;7.43;4.37;;;;;;;11.06;100.00;93913.38;5052456;28;20190;-63
2022/11/19 06:35:49;;;;;;;5.63;4.13;;;;;;;11.10;100.00;93910.38;5052170;28;20305;-59
2022/11/19 06:38:14;;;;;;;6.43;4.77;;;;;;;10.98;100.00;93902.22;5052512;28;20181;-60
2022/11/19 06:40:40;;;;;;;6.97;4.17;;;;;;;11.20;100.00;93921.25;5052123;28;20208;-62
2022/11/19 06:43:05;;;;;;;5.23;3.93;;;;;;;11.32;100.00;93945.47;5052484;28;20190;-64
2022/11/19 06:45:30;;;;;;;8.23;4.87;;;;;;;11.31;100.00;93948.97;5052722;28;20259;-62
2022/11/19 06:47:56;;;;;;;9.93;5.77;;;;;;;11.52;100.00;93961.31;5052294;28;20204;-58
2022/11/19 06:50:21;;;;;;;8.10;5.90;;;;;;;11.29;100.00;93947.53;5051918;28;20342;-58
2022/11/19 06:52:47;;;;;;;11.67;6.77;;;;;;;11.18;100.00;93928.25;5051771;28;20574;-60
2022/11/19 06:55:13;;;;;;;10.60;6.67;;;;;;;11.28;100.00;93939.09;5051794;28;20342;-63
2022/11/19 06:57:38;;;;;;;8.70;5.80;;;;;;;11.31;100.00;93950.72;5052104;28;20556;-61
2022/11/19 07:00:05;;;;;;;8.73;5.80;;;;;;;11.38;100.00;93956.78;5051825;28;20579;-62
2022/11/19 07:02:31;;;;;;;11.03;6.93;;;;;;;11.39;100.00;93948.22;5052154;28;20686;-63
2022/11/19 07:04:56;;;;;;;11.77;6.30;;;;;;;11.46;100.00;93952.53;5051845;28;20225;-61
2022/11/19 07:07:21;;;;;;;8.30;5.57;;;;;;;12.08;100.00;93933.50;5051957;28;20196;-59
2022/11/19 07:09:47;;;;;;;8.47;5.77;;;;;;;12.09;100.00;93932.56;5051845;28;20210;-62
2022/11/19 07:12:12;;;;;;;10.47;5.83;;;;;;;12.10;100.00;93956.31;5051664;28;20710;-60
2022/11/19 07:14:38;;;;;;;11.50;6.00;;;;;;;12.17;100.00;93977.63;5033234;28;20247;-58
2022/11/19 07:17:04;;;;;;;7.83;5.17;;;;;;;12.09;100.00;94006.44;5051729;28;20530;-59
2022/11/19 07:19:29;;;;;;;6.07;4.40;;;;;;;11.94;100.00;93977.41;5051591;28;20292;-62
2022/11/19 07:21:55;;;;;;;8.27;5.07;;;;;;;11.78;100.00;93965.44;5051732;28;20597;-57
2022/11/19 07:24:20;;;;;;;9.70;5.50;;;;;;;11.78;100.00;93959.53;5033527;28;20216;-61
2022/11/19 07:26:46;;;;;;;8.10;5.57;;;;;;;11.91;100.00;93965.00;5051669;28;20360;-62
2022/11/19 07:29:13;;;;;;;7.37;4.67;;;;;;;11.91;100.00;93956.56;5051371;28;20578;-58
2022/11/19 07:31:39;;;;;;;6.77;4.77;;;;;;;11.66;100.00;93925.94;5051308;28;20200;-61
2022/11/19 07:34:06;;;;;;;8.87;4.57;;;;;;;11.77;100.00;93945.22;5051158;28;20209;-62
2022/11/19 07:36:31;;;;;;;6.93;4.37;;;;;;;11.82;100.00;93955.72;5051345;28;20217;-62
2022/11/19 07:38:57;;;;;;;8.13;4.27;;;;;;;11.62;100.00;93944.97;5051195;28;20265;-62
2022/11/19 07:44:07;;;;;;;5.83;4.13;;;;;;;11.95;100.00;93962.94;5051396;28;20316;-61
2022/11/19 07:46:33;;;;;;;4.77;3.83;;;;;;;12.07;100.00;93994.81;5033340;28;20209;-59
2022/11/19 07:48:59;;;;;;;4.33;3.93;;;;;;;11.91;100.00;93969.28;5058587;22;20307;-63
2022/11/19 07:51:25;;;;;;;4.57;3.83;;;;;;;12.18;100.00;93979.25;5031072;28;20186;-62
2022/11/19 07:53:51;;;;;;;7.33;4.27;;;;;;;12.33;100.00;93987.88;5030845;28;20178;-58
2022/11/19 07:56:17;;;;;;;4.77;3.73;;;;;;;12.43;100.00;93989.31;5031012;28;20217;-58
2022/11/19 07:58:42;;;;;;;6.97;5.03;;;;;;;12.43;100.00;93966.38;5031043;28;20189;-62
2022/11/19 08:01:17;;;;;;;5.37;4.70;;;;;;;12.55;100.00;93964.31;5031076;28;20194;-62
2022/11/19 08:03:45;;;;;;;6.33;4.80;;;;;;;12.56;100.00;93982.00;5030720;28;20188;-63
2022/11/19 08:06:11;;;;;;;7.63;5.07;;;;;;;12.68;100.00;93978.19;5031094;28;20198;-62
2022/11/19 08:08:37;;;;;;;6.10;4.47;;;;;;;12.77;100.00;94018.97;5030858;28;20193;-61
2022/11/19 08:11:07;;;;;;;8.37;5.23;;;;;;;12.75;100.00;94008.13;5030956;28;20703;-61
2022/11/19 08:13:34;;;;;;;5.80;4.63;;;;;;;12.52;100.00;94020.72;5040068;22;20186;-60
2022/11/19 08:16:03;;;;;;;6.13;4.70;;;;;;;12.22;100.00;94003.47;5049918;28;20225;-60
2022/11/19 08:18:30;;;;;;;7.47;5.00;;;;;;;12.50;100.00;94020.09;5050700;28;20186;-61
2022/11/19 08:21:02;;;;;;;6.17;4.40;;;;;;;12.56;100.00;94024.56;5050768;28;20209;-62
2022/11/19 08:23:28;;;;;;;7.80;4.80;;;;;;;12.60;100.00;94015.63;5050863;28;20200;-61
2022/11/19 08:25:53;;;;;;;9.57;4.93;;;;;;;12.74;100.00;94030.31;5031629;28;20302;-61
2022/11/19 08:28:19;;;;;;;5.43;4.23;;;;;;;12.66;100.00;94032.84;5050640;28;20241;-61
2022/11/19 08:30:45;;;;;;;7.13;4.80;;;;;;;12.71;100.00;94011.97;5050461;28;20251;-60
2022/11/19 08:33:11;;;;;;;5.23;3.83;;;;;;;13.04;100.00;94026.38;5050594;28;20181;-62
2022/11/19 08:35:36;;;;;;;7.53;4.83;;;;;;;13.05;100.00;94021.09;5032496;28;20721;-62
2022/11/19 08:38:02;;;;;;;6.17;4.30;;;;;;;13.29;100.00;94079.00;5050592;28;20193;-61
2022/11/19 08:40:27;;;;;;;7.07;5.50;;;;;;;13.11;100.00;94078.38;5050538;28;20205;-63
2022/11/19 08:42:59;;;;;;;7.77;4.60;;;;;;;13.17;100.00;94053.00;5050387;28;20541;-63
2022/11/19 08:45:37;;;;;;;8.27;4.90;;;;;;;13.22;100.00;94072.94;5050438;28;20223;-62
2022/11/19 08:48:06;;;;;;;9.53;4.73;;;;;;;13.18;100.00;94071.66;5050617;28;20196;-62
2022/11/19 08:50:32;;;;;;;5.20;4.27;;;;;;;13.09;100.00;94047.88;5050511;28;20209;-60
2022/11/19 08:55:24;;;;;;;7.07;4.17;;;;;;;13.45;100.00;94084.09;5051060;22;20655;-62
2022/11/19 08:57:50;;;;;;;4.63;3.90;;;;;;;13.77;100.00;94103.69;5050344;28;20489;-62
2022/11/19 09:00:17;;;;;;;6.73;4.53;;;;;;;13.78;100.00;94069.50;5032596;28;20292;-61
2022/11/19 09:02:42;;;;;;;7.20;4.13;;;;;;;13.84;100.00;94061.19;5050282;28;20185;-61
2022/11/19 09:05:08;;;;;;;6.87;5.20;;;;;;;13.98;100.00;94086.84;5051304;28;20220;-61
2022/11/19 09:07:34;;;;;;;8.43;4.80;;;;;;;14.18;100.00;94087.31;5050556;28;20681;-61
2022/11/19 09:09:59;;;;;;;8.77;5.60;;;;;;;14.69;100.00;94116.66;5050441;28;20288;-61
2022/11/19 09:12:28;;;;;;;6.47;5.30;;;;;;;14.50;100.00;94132.44;5050447;28;20185;-61
2022/11/19 09:14:54;;;;;;;7.50;5.03;;;;;;;14.19;100.00;94129.78;5050444;28;20788;-60
2022/11/19 09:17:19;;;;;;;5.10;4.60;;;;;;;14.40;100.00;94126.72;5050747;28;20182;-62
2022/11/19 09:19:44;;;;;;;5.65;5.15;;;;;;;14.66;100.00;94145.16;5033131;28;20597;-62
2022/11/19 09:22:10;;;;;;;5.67;4.97;;;;;;;14.74;100.00;94137.44;5033353;28;20197;-61
2022/11/19 09:24:36;;;;;;;8.50;5.45;;;;;;;14.47;100.00;94130.19;5050173;28;20216;-61
2022/11/19 09:27:01;;;;;;;5.38;4.55;;;;;;;14.21;100.00;94125.31;5050349;28;20643;-58
2022/11/19 09:29:26;;;;;;;10.90;5.60;;;;;;;14.66;100.00;94092.22;5050804;28;20286;-62
2022/11/19 09:31:52;;;;;;;5.50;5.00;;;;;;;15.04;100.00;94104.16;5050517;28;20188;-62
2022/11/19 09:34:17;;;;;;;5.90;4.50;;;;;;;15.46;100.00;94192.56;5050577;28;20729;-62
2022/11/19 09:36:43;;;;;;;6.20;5.15;;;;;;;15.37;100.00;94211.50;5049703;28;20205;-60
2022/11/19 09:39:09;;;;;;;4.93;4.40;;;;;;;15.13;100.00;94153.50;5035335;28;20236;-59
2022/11/19 09:41:34;;;;;;;6.20;5.13;;;;;;;15.30;100.00;94141.41;5053234;28;20578;-62
2022/11/19 09:44:18;;;;;;;6.97;5.68;;;;;;;15.18;100.00;94101.81;5053410;28;20213;-62
2022/11/19 09:47:13;;;;;;;7.60;5.43;;;;;;;15.54;100.00;94098.50;5053044;28;20265;-61
2022/11/19 09:49:46;;;;;;;7.15;5.07;;;;;;;15.52;100.00;94109.88;4981734;28;20617;-62
2022/11/19 09:52:19;;;;;;;5.45;4.43;;;;;;;15.61;100.00;94109.66;5053018;28;20190;-61
2022/11/19 09:55:02;;;;;;;8.48;4.95;;;;;;;16.16;100.00;94116.97;5053435;28;20216;-58
2022/11/19 09:57:51;;;;;;;7.35;5.18;;;;;;;16.62;100.00;94105.53;5053195;28;20604;-62
2022/11/19 10:00:26;;;;;;;5.88;4.78;;;;;;;17.15;100.00;94137.75;5035666;28;20588;-62
2022/11/19 10:02:52;;;;;;;8.80;5.55;;;;;;;17.82;100.00;94176.75;5036068;28;20243;-59
2022/11/19 10:05:35;;;;;;;10.63;5.38;;;;;;;18.34;100.00;94210.59;5053848;28;20216;-59
2022/11/19 10:08:20;;;;;;;6.53;4.18;;;;;;;18.80;100.00;94269.38;5053111;28;20193;-58
2022/11/19 10:11:07;;;;;;;4.53;3.83;;;;;;;19.10;100.00;94314.53;5052879;28;20232;-63
2022/11/19 10:13:38;;;;;;;5.30;4.78;;;;;;;19.32;100.00;94241.28;5053244;28;20247;-62
2022/11/19 10:16:27;;;;;;;6.93;4.57;;;;;;;19.45;100.00;94238.78;5052875;28;20213;-62
2022/11/19 10:18:59;;;;;;;6.88;3.10;;;;;;;19.63;100.00;94338.81;5053092;28;20185;-64
2022/11/19 10:21:38;;;;;;;5.53;3.03;;;;;;;19.52;100.00;94218.94;5053369;28;20289;-63
2022/11/19 10:24:21;;;;;;;2.80;2.60;;;;;;;19.87;100.00;94229.94;5036456;28;20764;-58
2022/11/19 10:27:00;;;;;;;5.28;3.25;;;;;;;19.99;100.00;94334.97;5052790;28;20241;-63
2022/11/19 10:29:30;;;;;;;6.95;3.13;;;;;;;19.81;100.00;94290.06;5052798;28;20327;-59
2022/11/19 10:32:20;;;;;;;5.22;3.03;;;;;;;19.68;100.00;94253.91;5052841;28;20198;-62
2022/11/19 10:34:48;;;;;;;2.83;2.53;;;;;;;19.89;100.00;94311.31;5034896;28;20209;-61
2022/11/19 10:37:19;;;;;;;4.63;2.45;;;;;;;19.53;100.00;94297.91;5052341;28;20554;-59
2022/11/19 10:39:50;;;;;;;3.28;2.80;;;;;;;18.88;100.00;94176.47;5052548;28;20304;-60
2022/11/19 10:42:21;;;;;;;4.47;3.20;;;;;;;19.01;100.00;94159.28;5052455;28;20582;-61
2022/11/19 10:45:01;;;;;;;4.20;2.70;;;;;;;19.46;100.00;94200.88;5052676;28;20208;-61
2022/11/19 10:47:29;;;;;;;4.15;2.45;;;;;;;19.74;100.00;94243.59;5052534;28;20209;-62
2022/11/19 10:49:56;;;;;;;4.30;2.95;;;;;;;19.96;100.00;94233.91;5051529;28;20210;-64
2022/11/19 10:52:24;;;;;;;3.70;2.53;;;;;;;20.14;100.00;94283.16;5034564;28;20640;-60
2022/11/19 10:54:54;;;;;;;3.63;2.70;;;;;;;20.24;100.00;94273.28;5052580;28;20209;-63
2022/11/19 10:57:20;;;;;;;3.72;3.20;;;;;;;20.27;100.00;94235.94;5052397;28;20193;-62
2022/11/19 10:59:50;;;;;;;4.28;2.78;;;;;;;20.35;100.00;94270.13;5052553;28;20241;-62
2022/11/19 11:02:30;;;;;;;5.47;2.63;;;;;;;20.49;99.07;94294.16;5052197;28;20264;-63
2022/11/19 11:05:06;;;;;;;6.68;2.95;;;;;;;20.22;98.65;94280.41;5052831;28;20216;-63
2022/11/19 11:07:50;;;;;;;4.15;2.80;;;;;;;20.09;99.08;94265.72;5052155;28;20181;-60
2022/11/19 11:10:36;;;;;;;4.00;2.88;;;;;;;20.24;100.00;94218.28;5051939;28;20775;-60
2022/11/19 11:16:45;;;;;;;10.93;3.80;;;;;;;19.91;100.00;94161.47;5052184;28;20714;-60
2022/11/19 11:19:13;;;;;;;4.32;3.85;;;;;;;19.36;100.00;94071.56;5041223;28;20702;-61
2022/11/19 11:21:41;;;;;;;8.52;3.25;;;;;;;19.56;100.00;94101.53;5051831;28;20276;-61
2022/11/19 11:24:09;;;;;;;6.05;3.88;;;;;;;19.76;100.00;94124.75;5051987;28;20214;-61
2022/11/19 11:26:42;;;;;;;9.55;3.10;;;;;;;19.88;100.00;94116.22;5051790;28;20260;-61
2022/11/19 11:29:13;;;;;;;4.13;3.00;;;;;;;19.85;100.00;94157.91;5051794;28;20228;-59
2022/11/19 11:31:40;;;;;;;4.50;3.17;;;;;;;20.01;100.00;94167.03;5051958;28;20185;-62
2022/11/19 11:34:14;;;;;;;5.38;3.05;;;;;;;19.68;100.00;94161.03;5033775;28;20213;-60
2022/11/19 11:36:41;;;;;;;8.52;2.95;;;;;;;19.92;100.00;94186.25;5051630;28;20234;-61
2022/11/19 11:39:24;;;;;;;5.38;1.88;;;;;;;19.83;100.00;94219.22;5051730;28;20220;-61
2022/11/19 11:41:49;;;;;;;4.07;2.08;;;;;;;20.02;100.00;94168.59;5051592;28;20192;-60
2022/11/19 11:44:18;;;;;;;3.13;1.75;;;;;;;20.09;100.00;94138.44;5051433;28;20687;-61
2022/11/19 11:46:57;;;;;;;2.92;1.90;;;;;;;20.46;100.00;94189.44;5051360;28;20178;-58
2022/11/19 11:52:32;;;;;;;2.17;1.80;;;;;;;21.30;80.98;94310.97;5053180;28;20184;-59
2022/11/19 11:55:00;;;;;;;4.88;2.40;;;;;;;21.47;74.24;94346.53;5050402;28;20278;-62
2022/11/19 11:57:30;;;;;;;5.32;2.45;;;;;;;21.04;76.35;94267.09;5051380;28;20178;-62